createdAt,value
2023-03-14T00:00:26.491Z,3.33
2023-03-14T00:02:56.816Z,3.67
2023-03-14T00:05:26.851Z,3.33
2023-03-14T00:07:57.232Z,3.90
2023-03-14T00:10:27.131Z,5.00
2023-03-14T00:12:57.245Z,4.70
2023-03-14T00:15:26.969Z,3.72
2023-03-14T00:17:56.702Z,3.58
2023-03-14T00:20:26.604Z,3.42
2023-03-14T00:22:56.308Z,3.45
2023-03-14T00:25:25.975Z,4.88
2023-03-14T00:27:55.628Z,5.68
2023-03-14T00:30:25.357Z,5.78
2023-03-14T00:32:55.052Z,4.10
2023-03-14T00:35:24.615Z,3.80
2023-03-14T00:37:54.279Z,3.75
2023-03-14T00:40:23.919Z,4.43
2023-03-14T00:42:53.630Z,4.35
2023-03-14T00:45:23.324Z,3.30
2023-03-14T00:47:53.042Z,4.03
2023-03-14T00:50:22.652Z,3.33
2023-03-14T00:52:52.421Z,3.65
2023-03-14T00:55:22.440Z,3.47
2023-03-14T00:57:52.154Z,3.47
2023-03-14T01:00:21.912Z,3.65
2023-03-14T01:02:51.637Z,3.25
2023-03-14T01:05:21.384Z,2.92
2023-03-14T01:07:51.057Z,2.85
2023-03-14T01:10:21.115Z,3.17
2023-03-14T01:12:50.929Z,3.30
2023-03-14T01:15:20.775Z,3.22
2023-03-14T01:17:50.682Z,2.67
2023-03-14T01:20:20.811Z,3.45
2023-03-14T01:22:50.669Z,2.60
2023-03-14T01:25:20.827Z,2.42
2023-03-14T01:27:50.465Z,3.13
2023-03-14T01:30:20.152Z,3.13
2023-03-14T01:32:50.309Z,3.10
2023-03-14T01:35:20.195Z,3.33
2023-03-14T01:37:49.837Z,3.00
2023-03-14T01:40:20.421Z,2.58
2023-03-14T01:43:00.233Z,2.67
2023-03-14T01:46:03.488Z,3.50
2023-03-14T01:48:54.108Z,2.35
2023-03-14T01:51:28.770Z,2.83
2023-03-14T01:54:07.758Z,3.25
2023-03-14T01:56:38.176Z,2.67
2023-03-14T01:59:08.686Z,3.05
2023-03-14T02:01:38.384Z,3.25
2023-03-14T02:04:08.644Z,2.22
2023-03-14T02:06:50.203Z,2.53
2023-03-14T02:09:20.101Z,2.30
2023-03-14T02:11:49.674Z,2.22
2023-03-14T02:14:39.523Z,2.30
2023-03-14T02:17:10.198Z,2.13
2023-03-14T02:19:42.723Z,2.00
2023-03-14T02:22:16.000Z,1.83
2023-03-14T02:25:06.751Z,1.80
2023-03-14T02:27:36.423Z,2.20
2023-03-14T02:30:05.971Z,2.13
2023-03-14T02:32:36.719Z,2.08
2023-03-14T02:35:11.973Z,2.00
2023-03-14T02:37:55.477Z,1.88
2023-03-14T02:40:25.070Z,2.38
2023-03-14T02:42:54.673Z,1.90
2023-03-14T02:45:24.218Z,14.70
2023-03-14T02:47:57.509Z,26.33
2023-03-14T02:50:28.562Z,20.40
2023-03-14T02:52:58.210Z,25.02
2023-03-14T02:55:31.123Z,19.77
2023-03-14T02:58:00.776Z,21.15
2023-03-14T03:00:30.446Z,17.88
2023-03-14T03:03:00.194Z,14.07
2023-03-14T03:05:29.854Z,12.38
2023-03-14T03:07:59.832Z,12.70
2023-03-14T03:10:29.999Z,13.13
2023-03-14T03:12:59.728Z,10.30
2023-03-14T03:15:29.592Z,11.10
2023-03-14T03:17:59.277Z,9.57
2023-03-14T03:20:29.076Z,9.55
2023-03-14T03:22:58.690Z,8.55
2023-03-14T03:25:28.345Z,8.23
2023-03-14T03:27:58.155Z,7.13
2023-03-14T03:30:27.729Z,8.00
2023-03-14T03:32:57.390Z,6.25
2023-03-14T03:35:27.058Z,6.25
2023-03-14T03:37:56.713Z,5.80
2023-03-14T03:40:26.338Z,5.70
2023-03-14T03:42:55.955Z,4.35
2023-03-14T03:45:25.628Z,4.50
2023-03-14T03:47:55.244Z,4.82
2023-03-14T03:50:24.868Z,4.72
2023-03-14T03:52:54.531Z,3.63
2023-03-14T03:55:24.235Z,3.60
2023-03-14T03:57:54.047Z,3.40
2023-03-14T04:00:23.723Z,3.83
2023-03-14T04:02:53.448Z,4.18
2023-03-14T04:05:23.252Z,2.63
2023-03-14T04:07:52.898Z,3.67
2023-03-14T04:10:22.690Z,2.50
2023-03-14T04:12:52.355Z,3.00
2023-03-14T04:15:22.192Z,2.33
2023-03-14T04:17:51.798Z,2.03
2023-03-14T04:20:21.515Z,2.72
2023-03-14T04:22:51.159Z,2.15
2023-03-14T04:25:22.596Z,2.08
2023-03-14T04:27:53.471Z,2.75
2023-03-14T04:30:23.339Z,2.08
2023-03-14T04:32:53.137Z,2.33
2023-03-14T04:35:22.777Z,2.25
2023-03-14T04:37:54.523Z,1.80
2023-03-14T04:40:24.123Z,1.83
2023-03-14T04:42:53.768Z,1.48
2023-03-14T04:45:23.463Z,2.40
2023-03-14T04:47:53.295Z,1.88
2023-03-14T04:50:22.968Z,1.50
2023-03-14T04:52:52.563Z,1.88
2023-03-14T04:55:24.348Z,1.58
2023-03-14T04:57:54.072Z,1.63
2023-03-14T05:00:23.711Z,1.77
2023-03-14T05:02:53.388Z,2.38
2023-03-14T05:05:23.137Z,1.50
2023-03-14T05:07:53.085Z,1.85
2023-03-14T05:10:22.739Z,2.00
2023-03-14T05:12:52.323Z,1.58
2023-03-14T05:15:21.952Z,1.42
2023-03-14T05:17:51.845Z,2.10
2023-03-14T05:20:21.508Z,1.70
2023-03-14T05:22:51.242Z,1.20
2023-03-14T05:25:20.821Z,1.20
2023-03-14T05:27:50.443Z,1.30
2023-03-14T05:30:20.183Z,5.88
2023-03-14T05:32:49.852Z,3.42
2023-03-14T05:35:19.726Z,2.47
2023-03-14T05:37:49.338Z,3.53
2023-03-14T05:40:19.142Z,2.50
2023-03-14T05:42:48.800Z,2.60
2023-03-14T05:45:18.518Z,2.58
2023-03-14T05:47:48.188Z,2.22
2023-03-14T05:50:17.851Z,1.98
2023-03-14T05:52:47.411Z,2.10
2023-03-14T05:55:17.152Z,2.10
2023-03-14T05:57:46.810Z,2.05
2023-03-14T06:00:16.842Z,2.00
2023-03-14T06:02:46.421Z,2.83
2023-03-14T06:05:16.664Z,2.10
2023-03-14T06:07:46.290Z,1.90
2023-03-14T06:10:15.845Z,1.88
2023-03-14T06:12:45.433Z,1.90
2023-03-14T06:15:14.990Z,2.10
2023-03-14T06:17:44.592Z,1.77
2023-03-14T06:20:14.560Z,1.63
2023-03-14T06:22:44.619Z,1.80
2023-03-14T06:25:14.333Z,1.70
2023-03-14T06:27:43.915Z,2.40
2023-03-14T06:30:13.997Z,1.60
2023-03-14T06:32:43.699Z,1.50
2023-03-14T06:35:13.316Z,1.90
2023-03-14T06:37:42.954Z,1.55
2023-03-14T06:40:15.245Z,1.92
2023-03-14T06:42:44.827Z,1.50
2023-03-14T06:45:14.512Z,1.30
2023-03-14T06:47:44.891Z,1.38
2023-03-14T06:50:14.830Z,1.75
2023-03-14T06:52:48.731Z,1.30
2023-03-14T06:55:21.215Z,1.50
2023-03-14T06:57:51.718Z,1.40
2023-03-14T07:00:21.746Z,1.50
2023-03-14T07:02:51.463Z,1.25
2023-03-14T07:05:21.309Z,1.08
2023-03-14T07:07:50.898Z,1.20
2023-03-14T07:10:20.651Z,1.42
2023-03-14T07:12:50.276Z,1.63
2023-03-14T07:15:20.062Z,1.15
2023-03-14T07:17:50.727Z,1.25
2023-03-14T07:20:20.462Z,1.38
2023-03-14T07:22:53.145Z,1.35
2023-03-14T07:25:22.868Z,1.48
2023-03-14T07:27:54.967Z,1.48
2023-03-14T07:30:24.640Z,1.60
2023-03-14T07:32:54.305Z,1.33
2023-03-14T07:35:24.042Z,1.20
2023-03-14T07:37:53.622Z,1.00
2023-03-14T07:40:23.186Z,1.20
2023-03-14T07:42:52.789Z,1.63
2023-03-14T07:45:24.734Z,1.38
2023-03-14T07:47:54.621Z,1.23
2023-03-14T07:50:24.287Z,1.20
2023-03-14T07:52:54.091Z,1.60
2023-03-14T07:55:23.886Z,1.40
2023-03-14T07:57:53.468Z,1.35
2023-03-14T08:00:23.452Z,1.33
2023-03-14T08:02:53.285Z,1.30
2023-03-14T08:05:23.059Z,1.23
2023-03-14T08:07:52.718Z,1.40
2023-03-14T08:10:25.310Z,1.40
2023-03-14T08:12:58.815Z,1.33
2023-03-14T08:15:28.682Z,1.30
2023-03-14T08:17:58.401Z,1.40
2023-03-14T08:20:30.013Z,1.25
2023-03-14T08:23:00.647Z,1.02
2023-03-14T08:25:30.585Z,1.67
2023-03-14T08:28:00.393Z,1.00
2023-03-14T08:30:29.980Z,1.45
2023-03-14T08:33:02.813Z,1.30
2023-03-14T08:35:32.667Z,1.02
2023-03-14T08:38:02.274Z,1.27
2023-03-14T08:40:31.872Z,1.33
2023-03-14T08:43:01.468Z,1.42
2023-03-14T08:45:31.093Z,0.93
2023-03-14T08:48:01.553Z,8.63
2023-03-14T08:50:31.144Z,7.78
2023-03-14T08:53:02.507Z,1.60
2023-03-14T08:55:32.184Z,2.45
2023-03-14T08:58:01.859Z,4.53
2023-03-14T09:00:31.435Z,4.65
2023-03-14T09:03:01.092Z,3.55
2023-03-14T09:05:30.797Z,2.95
2023-03-14T09:08:00.411Z,3.95
2023-03-14T09:10:30.064Z,2.63
2023-03-14T09:13:00.704Z,3.03
2023-03-14T09:15:30.357Z,2.08
2023-03-14T09:17:59.963Z,2.47
2023-03-14T09:20:29.563Z,1.92
2023-03-14T09:22:59.118Z,2.22
2023-03-14T09:25:28.812Z,2.17
2023-03-14T09:27:58.361Z,1.67
2023-03-14T09:30:28.034Z,2.13
2023-03-14T09:32:57.908Z,1.55
2023-03-14T09:35:27.689Z,1.70
2023-03-14T09:37:57.355Z,1.48
2023-03-14T09:40:27.117Z,1.25
2023-03-14T09:42:56.674Z,1.38
2023-03-14T09:45:34.932Z,1.60
2023-03-14T09:48:05.215Z,1.42
2023-03-14T09:50:40.543Z,1.23
2023-03-14T09:53:15.521Z,1.95
2023-03-14T09:55:45.862Z,1.33
2023-03-14T09:58:19.236Z,1.25
2023-03-14T10:00:48.127Z,1.50
2023-03-14T10:03:25.201Z,1.23
2023-03-14T10:05:54.915Z,1.10
2023-03-14T10:08:24.546Z,1.27
2023-03-14T10:10:55.261Z,1.20
2023-03-14T10:13:30.285Z,1.02
2023-03-14T10:16:08.877Z,1.25
2023-03-14T10:18:38.581Z,0.82
2023-03-14T10:21:27.808Z,1.10
2023-03-14T10:23:57.479Z,1.35
2023-03-14T10:26:35.817Z,1.05
2023-03-14T10:29:15.522Z,1.20
2023-03-14T10:32:04.177Z,0.82
2023-03-14T10:34:38.155Z,0.68
2023-03-14T10:37:19.832Z,0.57
2023-03-14T10:39:54.204Z,0.70
2023-03-14T10:42:34.304Z,0.95
2023-03-14T10:45:25.500Z,0.90
2023-03-14T10:47:55.157Z,1.00
2023-03-14T10:50:32.522Z,0.80
2023-03-14T10:53:07.818Z,0.80
2023-03-14T10:55:45.044Z,0.85
2023-03-14T10:58:33.109Z,1.50
2023-03-14T11:01:27.889Z,0.93
2023-03-14T11:04:14.509Z,3.08
2023-03-14T11:06:48.463Z,0.75
2023-03-14T11:09:36.185Z,1.08
2023-03-14T11:12:35.428Z,1.00
2023-03-14T11:15:25.891Z,1.25
2023-03-14T11:18:30.367Z,1.00
2023-03-14T11:21:07.539Z,1.02
2023-03-14T11:23:50.366Z,1.13
2023-03-14T11:26:22.972Z,1.00
2023-03-14T11:29:04.076Z,1.50
2023-03-14T11:31:35.436Z,1.38
2023-03-14T11:34:08.814Z,1.38
2023-03-14T11:36:42.940Z,1.07
2023-03-14T11:39:20.847Z,1.42
2023-03-14T11:41:56.907Z,1.40
2023-03-14T11:44:30.814Z,1.30
2023-03-14T11:47:35.907Z,1.70
2023-03-14T11:50:18.646Z,1.30
2023-03-14T11:52:56.964Z,1.50
2023-03-14T11:55:36.973Z,1.48
2023-03-14T11:58:22.649Z,1.38
2023-03-14T12:00:52.406Z,1.50
2023-03-14T12:03:47.963Z,1.50
2023-03-14T12:06:23.182Z,1.50
2023-03-14T12:09:08.849Z,1.50
2023-03-14T12:11:55.276Z,1.63
2023-03-14T12:14:38.769Z,1.80
2023-03-14T12:17:23.621Z,2.03
2023-03-14T12:20:22.239Z,1.95
2023-03-14T12:22:59.515Z,1.90
2023-03-14T12:25:33.666Z,1.90
2023-03-14T12:30:33.554Z,1.77
2023-03-14T12:33:21.513Z,2.00
2023-03-14T12:36:04.552Z,1.90
2023-03-14T12:38:40.167Z,2.10
2023-03-14T12:41:24.375Z,1.80
2023-03-14T12:43:54.074Z,2.85
2023-03-14T12:46:28.849Z,2.17
2023-03-14T12:49:05.029Z,2.00
2023-03-14T12:51:41.946Z,1.95
2023-03-14T12:54:38.083Z,1.70
2023-03-14T12:57:19.748Z,2.33
2023-03-14T12:59:56.033Z,2.05
2023-03-14T13:02:26.074Z,1.98
2023-03-14T13:05:22.564Z,2.08
2023-03-14T13:07:53.466Z,2.15
2023-03-14T13:10:48.836Z,1.90
2023-03-14T13:13:24.980Z,2.40
2023-03-14T13:16:00.688Z,2.30
2023-03-14T13:18:44.516Z,2.00
2023-03-14T13:21:25.439Z,2.00
2023-03-14T13:24:03.034Z,2.20
2023-03-14T13:26:39.835Z,2.20
2023-03-14T13:29:35.250Z,2.90
2023-03-14T13:32:15.740Z,3.00
2023-03-14T13:34:45.564Z,2.13
2023-03-14T13:37:24.197Z,2.45
2023-03-14T13:39:59.000Z,2.83
2023-03-14T13:42:32.184Z,2.90
2023-03-14T13:45:01.822Z,2.20
2023-03-14T13:47:32.201Z,2.67
2023-03-14T13:50:01.920Z,2.47
2023-03-14T13:52:33.526Z,2.45
2023-03-14T13:55:03.624Z,2.30
2023-03-14T13:57:57.025Z,2.92
2023-03-14T14:00:30.428Z,2.85
2023-03-14T14:03:03.102Z,2.07
2023-03-14T14:05:34.494Z,2.58
2023-03-14T14:08:06.638Z,2.33
2023-03-14T14:10:36.265Z,2.50
2023-03-14T14:13:06.700Z,2.38
2023-03-14T14:15:37.058Z,2.28
2023-03-14T14:18:10.976Z,2.60
2023-03-14T14:20:48.269Z,2.38
2023-03-14T14:23:30.559Z,3.13
2023-03-14T14:26:00.378Z,2.75
2023-03-14T14:28:36.978Z,2.60
2023-03-14T14:31:27.658Z,2.70
2023-03-14T14:33:59.176Z,2.47
2023-03-14T14:36:35.567Z,2.50
2023-03-14T14:39:18.900Z,2.40
2023-03-14T14:41:48.530Z,2.20
2023-03-14T14:44:21.011Z,2.50
2023-03-14T14:46:50.800Z,2.90
2023-03-14T14:49:21.987Z,2.50
2023-03-14T14:51:52.479Z,3.28
2023-03-14T14:54:34.551Z,3.13
2023-03-14T14:57:08.496Z,2.70
2023-03-14T14:59:47.427Z,3.78
2023-03-14T15:02:34.060Z,2.63
2023-03-14T15:05:03.718Z,3.03
2023-03-14T15:07:33.509Z,2.72
2023-03-14T15:10:03.131Z,2.92
2023-03-14T15:12:32.690Z,2.92
2023-03-14T15:15:02.437Z,2.85
2023-03-14T15:17:32.081Z,3.58
2023-03-14T15:20:01.786Z,2.55
2023-03-14T15:22:31.411Z,3.13
2023-03-14T15:25:01.035Z,3.00
2023-03-14T15:27:30.751Z,3.08
2023-03-14T15:30:01.423Z,3.00
2023-03-14T15:32:31.196Z,2.63
2023-03-14T15:35:00.825Z,3.03
2023-03-14T15:37:30.422Z,3.00
2023-03-14T15:40:02.964Z,3.10
2023-03-14T15:42:32.617Z,3.33
2023-03-14T15:45:02.181Z,2.97
2023-03-14T15:47:34.651Z,3.38
2023-03-14T15:50:04.338Z,3.15
2023-03-14T15:52:33.956Z,3.08
2023-03-14T15:55:03.537Z,2.90
2023-03-14T15:57:33.159Z,3.17
2023-03-14T16:00:03.392Z,3.17
2023-03-14T16:02:33.120Z,3.78
2023-03-14T16:05:02.787Z,3.45
2023-03-14T16:07:33.494Z,3.45
2023-03-14T16:10:03.062Z,3.25
2023-03-14T16:12:32.793Z,3.25
2023-03-14T16:15:02.480Z,3.22
2023-03-14T16:17:32.067Z,3.67
2023-03-14T16:20:02.044Z,3.00
2023-03-14T16:22:35.905Z,2.70
2023-03-14T16:25:09.437Z,3.45
2023-03-14T16:27:39.031Z,3.50
2023-03-14T16:30:10.327Z,3.75
2023-03-14T16:32:39.955Z,4.40
2023-03-14T16:35:09.941Z,3.42
2023-03-14T16:37:39.462Z,3.83
2023-03-14T16:40:13.077Z,4.25
2023-03-14T16:43:05.275Z,3.20
2023-03-14T16:45:32.731Z,3.58
2023-03-14T16:48:02.336Z,3.70
2023-03-14T16:50:32.668Z,3.63
2023-03-14T16:53:03.683Z,3.78
2023-03-14T16:55:33.592Z,3.38
2023-03-14T16:58:04.121Z,3.65
2023-03-14T17:00:33.800Z,3.38
2023-03-14T17:03:03.369Z,3.00
2023-03-14T17:05:33.460Z,3.95
2023-03-14T17:08:03.159Z,3.35
2023-03-14T17:10:32.687Z,3.35
2023-03-14T17:13:02.452Z,3.67
2023-03-14T17:15:32.105Z,4.07
2023-03-14T17:18:01.711Z,3.90
2023-03-14T17:20:31.898Z,3.53
2023-03-14T17:23:01.522Z,2.92
2023-03-14T17:25:31.043Z,3.58
2023-03-14T17:28:00.687Z,4.15
2023-03-14T17:30:30.251Z,3.40
2023-03-14T17:32:59.973Z,3.55
2023-03-14T17:35:29.744Z,4.40
2023-03-14T17:37:59.456Z,3.42
2023-03-14T17:40:29.078Z,3.80
2023-03-14T17:42:58.668Z,3.33
2023-03-14T17:45:28.213Z,3.60
2023-03-14T17:47:57.788Z,3.65
2023-03-14T17:50:27.409Z,3.08
2023-03-14T17:52:57.002Z,3.47
2023-03-14T17:55:26.535Z,3.33
2023-03-14T17:57:56.229Z,3.40
2023-03-14T18:00:26.357Z,3.90
2023-03-14T18:02:58.569Z,3.20
2023-03-14T18:05:28.871Z,3.45
2023-03-14T18:07:59.679Z,3.60
2023-03-14T18:10:29.314Z,3.78
2023-03-14T18:12:58.924Z,3.78
2023-03-14T18:15:28.493Z,3.20
2023-03-14T18:17:58.100Z,3.65
2023-03-14T18:20:27.715Z,3.63
2023-03-14T18:22:58.045Z,3.83
2023-03-14T18:28:00.537Z,3.50
2023-03-14T18:30:30.151Z,3.65
2023-03-14T18:32:59.846Z,3.88
2023-03-14T18:35:29.786Z,4.03
2023-03-14T18:37:59.399Z,3.65
2023-03-14T18:40:29.079Z,3.60
2023-03-14T18:42:58.665Z,3.78
2023-03-14T18:45:28.252Z,3.30
2023-03-14T18:47:57.810Z,3.58
2023-03-14T18:50:27.344Z,3.47
2023-03-14T18:52:56.985Z,4.03
2023-03-14T18:55:26.584Z,3.38
2023-03-14T18:57:56.197Z,3.35
2023-03-14T19:00:28.375Z,3.72
2023-03-14T19:02:58.103Z,3.20
2023-03-14T19:05:27.748Z,3.50
2023-03-14T19:07:59.674Z,3.28
2023-03-14T19:10:29.246Z,3.67
2023-03-14T19:12:58.805Z,3.38
2023-03-14T19:15:28.451Z,3.50
2023-03-14T19:17:58.069Z,3.50
2023-03-14T19:20:27.802Z,3.47
2023-03-14T19:22:59.747Z,3.45
2023-03-14T19:25:29.324Z,3.50
2023-03-14T19:27:58.946Z,3.67
2023-03-14T19:30:28.663Z,3.45
2023-03-14T19:32:58.345Z,3.53
2023-03-14T19:35:28.009Z,3.80
2023-03-14T19:37:57.633Z,4.07
2023-03-14T19:40:27.277Z,3.78
2023-03-14T19:42:57.034Z,3.50
2023-03-14T19:45:28.710Z,3.58
2023-03-14T19:47:58.283Z,3.67
2023-03-14T19:50:28.284Z,3.42
2023-03-14T19:52:58.521Z,3.30
2023-03-14T19:55:28.536Z,3.30
2023-03-14T19:57:58.159Z,4.88
2023-03-14T20:00:28.837Z,3.78
2023-03-14T20:02:58.566Z,3.33
2023-03-14T20:05:28.748Z,3.72
2023-03-14T20:07:58.321Z,3.45
2023-03-14T20:10:27.902Z,2.80
2023-03-14T20:12:57.607Z,3.17
2023-03-14T20:15:27.164Z,3.17
2023-03-14T20:17:56.750Z,2.95
2023-03-14T20:20:26.791Z,2.80
2023-03-14T20:22:56.501Z,2.67
2023-03-14T20:25:26.106Z,2.05
2023-03-14T20:27:55.723Z,2.80
2023-03-14T20:30:25.563Z,2.17
2023-03-14T20:32:56.008Z,2.40
2023-03-14T20:35:25.669Z,2.05
2023-03-14T20:37:57.604Z,2.28
2023-03-14T20:40:30.152Z,2.28
2023-03-14T20:42:59.827Z,1.80
2023-03-14T20:45:29.412Z,1.45
2023-03-14T20:47:59.090Z,2.17
2023-03-14T20:50:28.717Z,1.70
2023-03-14T20:52:58.342Z,1.85
2023-03-14T20:55:27.911Z,1.90
2023-03-14T20:57:57.500Z,1.60
2023-03-14T21:00:27.042Z,1.52
2023-03-14T21:03:11.592Z,1.90
2023-03-14T21:08:13.463Z,1.83
2023-03-14T21:10:43.006Z,1.58
2023-03-14T21:13:12.885Z,1.67
2023-03-14T21:15:42.463Z,1.30
2023-03-14T21:18:12.145Z,1.48
2023-03-14T21:20:42.367Z,1.30
2023-03-14T21:23:13.342Z,1.73
2023-03-14T21:25:44.735Z,1.48
2023-03-14T21:28:14.673Z,1.40
2023-03-14T21:30:44.532Z,1.67
2023-03-14T21:33:15.671Z,1.52
2023-03-14T21:35:45.429Z,1.45
2023-03-14T21:38:15.052Z,1.40
2023-03-14T21:40:44.724Z,1.48
2023-03-14T21:43:17.136Z,1.30
2023-03-14T21:45:46.750Z,2.00
2023-03-14T21:48:16.266Z,1.67
2023-03-14T21:50:45.860Z,1.30
2023-03-14T21:53:15.401Z,1.40
2023-03-14T21:55:48.717Z,1.55
2023-03-14T21:58:18.269Z,1.30
2023-03-14T22:00:50.616Z,1.30
2023-03-14T22:03:21.112Z,1.30
2023-03-14T22:05:50.807Z,1.40
2023-03-14T22:08:21.321Z,1.50
2023-03-14T22:10:52.580Z,1.23
2023-03-14T22:13:22.668Z,1.10
2023-03-14T22:15:52.433Z,1.35
2023-03-14T22:18:22.068Z,1.27
2023-03-14T22:20:52.079Z,1.52
2023-03-14T22:23:21.735Z,1.13
2023-03-14T22:25:51.310Z,1.30
2023-03-14T22:28:21.189Z,1.15
2023-03-14T22:30:51.596Z,1.25
2023-03-14T22:33:21.550Z,1.15
2023-03-14T22:35:52.149Z,1.00
2023-03-14T22:38:21.928Z,1.08
2023-03-14T22:40:51.527Z,1.00
2023-03-14T22:43:21.175Z,1.10
2023-03-14T22:45:59.912Z,1.42
2023-03-14T22:48:29.561Z,1.02
2023-03-14T22:50:59.411Z,1.15
2023-03-14T22:53:29.193Z,0.90
2023-03-14T22:56:05.727Z,1.00
2023-03-14T22:58:35.724Z,1.20
2023-03-14T23:01:05.793Z,1.10
2023-03-14T23:03:35.398Z,1.10
2023-03-14T23:06:07.969Z,0.95
2023-03-14T23:08:39.402Z,1.38
2023-03-14T23:11:09.131Z,1.00
2023-03-14T23:13:38.805Z,1.02
2023-03-14T23:16:09.724Z,1.27
2023-03-14T23:18:40.666Z,0.98
2023-03-14T23:21:14.388Z,1.00
2023-03-14T23:23:44.248Z,0.93
2023-03-14T23:26:15.306Z,0.90
2023-03-14T23:28:45.276Z,0.90
2023-03-14T23:31:16.075Z,1.30
2023-03-14T23:33:46.768Z,0.85
2023-03-14T23:36:16.990Z,1.15
2023-03-14T23:38:47.213Z,0.95
2023-03-14T23:41:17.004Z,1.08
2023-03-14T23:43:53.047Z,0.90
2023-03-14T23:46:23.340Z,1.00
2023-03-14T23:48:54.018Z,0.70
2023-03-14T23:51:23.863Z,0.88
2023-03-14T23:53:53.450Z,1.20
2023-03-14T23:56:23.041Z,1.00
2023-03-14T23:58:55.920Z,0.80
